NHKPATUXENT RIVER NAS (TRAPNELL FLD)
METARs for airports near NHK, sorted by distance:
N 0 nm 38' KNHK 142152Z 13007KT 10SM SCT050 BKN240 33/25 A2995
NE 23 nm 19' KCGE 142225Z 16006KT 10SM FEW055 31/23 A2997
SE 33 nm 5' KTGI 142035Z 16010G14KT 10SM CLR 32/24 A2999
SW 34 nm 135' KXSA 142235Z 20004KT 10SM CLR 34/24 A2998
NE 34 nm 72' KESN 142145Z 22005KT 10SM CLR 30/22 A2997
NW 38 nm 279' KADW 142155Z 13010KT 10SM CLR 31/21 A2993
E 42 nm 52' KSBY 142154Z 15007KT 10SM CLR 30/23 A2998
W 44 nm 10' KNYG 142156Z 5SM CLR 36/21 A2995
NW 44 nm 73' KDAA 142155Z 18005KT 10SM CLR 36/17 A2992
NW 44 nm 14' KDCA 142152Z 20007KT 10SM FEW080 FEW250 37/17 A2993
NW 48 nm 48' KCGS 142225Z 15006KT 10SM CLR 33/23 A2995
S 48 nm 20' KFYJ 142235Z 00000KT 5SM CLR 33/24 A2998
W 49 nm 85' KEZF 142235Z 00000KT 10SM CLR 35/19 A2994
SE 49 nm 47' KMFV 142235Z 16008KT 10SM CLR A3000
SE 49 nm 40' KWAL 142154Z 18009KT 10SM CLR 29/24 A3000
W 49 nm 219' KRMN 142235Z 19005KT 10SM CLR 35/15 A2995
N 50 nm 150' KFME 142229Z 19003KT 10SM CLR 31/22 A2997
N 54 nm 143' KBWI 142154Z 17006KT 10SM FEW065 FEW250 34/22 A2994
NE 54 nm 53' KGED 142154Z 18007KT 10SM CLR 31/23 A2998
NW 58 nm 192' KHEF 142156Z 21007KT 10SM CLR 35/19 A2996
SW 59 nm 206' KOFP 142154Z 23007KT 10SM CLR 36/20 A2997
E 60 nm 15' KOXB 142053Z 21005KT 10SM CLR 28/24 A3001
N 62 nm 21' KMTN 142155Z 12010KT 10SM CLR 31/23 A2997
NW 63 nm 312' KIAD 142152Z 21010KT 10SM FEW090 FEW140 35/18 A2995
SW 63 nm 167' KRIC 142154Z 19009KT 10SM FEW050 35/22 A2996
NW 63 nm 538' KGAI 142156Z VRB03KT 3SM BR OVC070 A2997
W 63 nm 336' KHWY 142235Z 17005KT 10SM CLR 35/17 A2996
NE 67 nm 28' KDOV 142155Z 20014KT 10SM FEW170 33/21 A2994
S 69 nm 42' KPHF 142154Z 23006KT 10SM CLR 34/23 A2998
W 69 nm 315' KCJR 142235Z 19003KT CLR 35/17 A2996
S 69 nm 11' KFAF 130055Z 17007KT 5SM RA OVC035 23/22 A3018
N 71 nm 44' KAPG 122034Z VRB05KT 7SM -RA SCT030 OVC050 26/22 A3014
NW 71 nm 389' KJYO 142235Z 21007KT 190V250 10SM CLR 36/21 A2996
S 72 nm 8' KLFI 142155Z 12007KT 10SM CLR 32/25 A2997
SW 74 nm 236' KFCI 142156Z 21005KT 10SM CLR 34/22 A2998
W 75 nm 493' KLKU 142235Z 16004KT 10SM SCT100 33/21 A2999
W 77 nm 464' KOMH 142235Z 16003KT 10SM CLR 33/20 A2998
S 81 nm 14' KNGU 142159Z 18004KT 9SM SCT050 SCT250 34/24 A3000
NW 81 nm 308' KFDK 142147Z 00000KT 10SM CLR 37/16 A2994
NE 82 nm 21' KWWD 142156Z 17010KT 10SM CLR 28/22 A2999
S 82 nm 111' KAKQ 142154Z 23006KT 9SM CLR 34/24 A2998
W 83 nm 454' KGVE 142235Z 00000KT 10SM CLR 33/22 A2997
N 84 nm 789' KDMW 142225Z 23006KT 10SM CLR 37/16 A2997
S 84 nm 26' KORF 142151Z 23007KT 10SM FEW042 FEW090 33/23 A2997
SW 84 nm 192' KPTB 142235Z 00000KT 10SM CLR 33/23 A3000
S 89 nm 21' KNTU 142156Z 18008KT 10SM FEW040 SCT250 32/26 A2998
NE 90 nm 84' KMIV 142154Z VRB05KT 10SM CLR 28/21 A2997
S 90 nm 28' KPVG 142156Z 10SM CLR 33/24 A3001
NE 91 nm 79' KILG 142227Z 10005KT 10SM VCTS CLR 30/22 A2997
NW 94 nm 703' KFRR 142235Z 17005KT SCT100 34/18 A2996
TAFs for airports near NHK, sorted by distance:
N 0 nm 38' KNHK TAF KNHK 1415/1515 VRB06KT 9999 FEW030 FEW100 QNH2995INS
  FM141700 15008KT 9999 VCTS FEW040CB SCT060 SCT070 QNH2993INS
  BECMG 1504/1506 23008KT 9999 NSW FEW060 FEW080 QNH2989INS TX32/1418Z TN26/1509Z FN00268
NW 38 nm 279' KADW TAF
  AMD KADW 141910Z 1419/1523 27012KT 9999 VCTS SCT050CB QNH2997INS
  TEMPO 1419/1421 29012G18KT 8000 -TSRA BKN050CB
  BECMG 1420/1421 22006KT 9999 NSW SCT050 QNH2994INS
  BECMG 1500/1501 17006KT 9999 FEW070 QNH2992INS
  BECMG 1506/1507 26006KT 9999 SCT060 SCT250 QNH2986INS
  BECMG 1518/1519 23012KT 9999 -SHRA VCTS BKN040CB QNH2983INS TX38/1419Z TN23/1509Z
E 42 nm 52' KSBY KSBY 141722Z 1418/1518 17008KT P6SM SCT060
  FM142300 17003KT P6SM SKC
  FM151400 24007KT P6SM SKC
W 44 nm 10' KNYG TAF KNYG 1321/1421 VRB06KT 9999 SKC QNH3005INS
  FM140600 VRB06KT 9999 SCT200 QNH2995INS LAST NO
  AMDS AFT 1321 NEXT 1509 AUTOMATED SENSOR METWATCH 1321 TIL 1511 T32/1321Z T22/1411Z
NW 44 nm 73' KDAA TAF KDAA 121200Z 1212/1318 VRB05KT 9999 VCSH SCT030 BKN060 OVC100 QNH2996INS
  BECMG 1212/1213 03006KT 9000 -SHRA FEW015 BKN030 OVC070 QNH3000INS
  BECMG 1213/1214 04007KT 8000 -SHRA VCTS SCT015CB OVC030 QNH3011INS
  TEMPO 1214/1301 VRB12G20KT 4800 TSRA BR SCT008 OVC015CB
  BECMG 1302/1303 VRB06KT 9000 -RA OVC010 QNH3010INS
  BECMG 1306/1307 VRB05KT 4800 -RA BR OVC008 QNH3011INS
  BECMG 1312/1313 16007KT 8000 -SHRA VCTS SCT009 BKN015CB OVC030 QNH3012INS TX27/1220Z TN24/1310Z
NW 44 nm 14' KDCA KDCA 142102Z 1421/1524 21008G16KT P6SM VCTS SCT060CB SCT250
  FM142200 08008G16KT P6SM FEW200
  FM150500 17005KT P6SM FEW200
  FM151600 26005KT P6SM FEW200
N 54 nm 143' KBWI TAF
  AMD KBWI 142102Z 1421/1524 18009G15KT P6SM VCTS SCT060CB SCT250
  FM142300 20004KT P6SM FEW200
  FM150500 17004KT P6SM FEW250
  FM151600 25005KT P6SM FEW200
N 62 nm 21' KMTN KMTN 142001Z 1420/1518 15012G20KT P6SM FEW250
  FM150000 20005KT P6SM FEW250
  FM150400 17005KT P6SM FEW250
  FM151600 21005KT P6SM FEW200
NW 63 nm 312' KIAD KIAD 142102Z 1421/1524 23009KT P6SM FEW250
  FM142300 21005KT P6SM FEW250
  FM150300 18004KT P6SM FEW250
  FM151600 26005KT P6SM FEW250
SW 63 nm 167' KRIC KRIC 141722Z 1418/1518 19008KT P6SM SCT060
  FM142300 22005KT P6SM SKC
NE 67 nm 28' KDOV TAF KDOV 141600Z 1416/1522 18006KT 9999 SCT095 QNH3005INS
  BECMG 1417/1418 22006KT 9999 BKN100 QNH2997INS
  TEMPO 1418/1422 9000 -SHRA
  BECMG 1502/1503 23009KT 9999 SCT080 QNH2993INS TX33/1420Z TN24/1510Z
S 69 nm 42' KPHF KPHF 141722Z 1418/1518 22007KT P6SM SCT060
  FM142300 22005KT P6SM SKC
S 69 nm 11' KFAF TAF KFAF 121800Z 1218/1324 18009KT 6000 -SHRA BR VCTS BKN025CB BKN040 OVC060 QNH3006INS
  TEMPO 1218/1223 VRB12G18KT 8000 -TSRA SCT015CB BKN020 OVC035
  BECMG 1223/1224 16006KT 8000 -SHRA BR BKN022 OVC034 QNH3007INS TX28/1318Z TN24/1308Z
S 72 nm 8' KLFI TAF
  AMD KLFI 141405Z 1414/1517 VRB06KT 9999 FEW095 QNH3006INS
  BECMG 1416/1417 VRB06KT 9999 NSW FEW085 SCT120 QNH2992INS TX33/1417Z TN31/1414Z LAST NO
  AMDS AFT 1414 NEXT 1509
S 81 nm 14' KNGU TAF KNGU 1415/1515 27006KT 9999 FEW030 FEW070 QNH2998INS
  BECMG 1419/1421 15010KT 9999 VCTS FEW035CB SCT050 SCT060 QNH2994INS
  BECMG 1503/1505 22008KT 9999 NSW FEW030 SCT040 QNH2993INS TX31/1418Z TN26/1509Z FN00268
S 84 nm 26' KORF KORF 141722Z 1418/1518 06006KT P6SM SCT060
  FM142100 15008KT P6SM FEW060
  FM150300 22009KT P6SM SKC
S 89 nm 21' KNTU TAF KNTU 1415/1515 VRB04KT 9999 FEW035 FEW200 QNH2999INS
  FM142100 15009KT 9999 VCTS FEW030CB SCT060 QNH2996INS
  BECMG 1504/1506 20008KT 9999 NSW FEW030 SCT040 QNH2993INS TX30/1418Z TN25/1509Z FN00268
NE 90 nm 84' KMIV TAF KMIV 141720Z 1418/1518 20008KT P6SM SCT040
  FM142300 VRB02KT P6SM SCT100
  FM151500 24006KT P6SM FEW050
NE 91 nm 79' KILG TAF KILG 141720Z 1418/1518 16008KT P6SM SCT040
  TEMPO 1418/1421 VRB20G30KT 3SM TSRA BKN040CB
  FM150100 18005KT P6SM FEW100
  FM151500 24006KT P6SM FEW060

Shortcut to this page: http://wxbay.com.

Data may contain errors.